Time;durP1;ratioP1;P1;durP2;ratioP2;P2;SDS_P1;SDS_P2;PMS_P1;PMS_P2;Temp;Humidity;BMP_temperature;BMP_pressure;BME280_temperature;BME280_humidity;BME280_pressure;Samples;Min_cycle;Max_cycle;Signal;HPM_P1;HPM_P2
2020/12/31 00:01:17;;;;;;;;;;;;;;;;;;5069526;28;20409;-82
2020/12/31 00:03:44;;;;;;;;;;;;;;;;;;5063569;28;20394;-82
2020/12/31 00:06:10;;;;;;;;;;;;;;;;;;5057246;28;20381;-82
2020/12/31 00:08:37;;;;;;;;;;;;;;;;;;5073599;28;20386;-82
2020/12/31 00:11:03;;;;;;;;;;;;;;;;;;5070811;28;20393;-83
2020/12/31 00:13:29;;;;;;;;;;;;;;;;;;5073911;28;20386;-82
2020/12/31 00:16:02;;;;;;;;;;;;;;;;;;5072127;28;20807;-83
2020/12/31 00:18:28;;;;;;;;;;;;;;;;;;5065018;28;20392;-84
2020/12/31 00:20:54;;;;;;;;;;;;;;;;;;5072501;28;20377;-84
2020/12/31 00:23:21;;;;;;;;;;;;;;;;;;5060741;28;20388;-82
2020/12/31 00:25:48;;;;;;;;;;;;;;;;;;5067649;28;20635;-82
2020/12/31 00:28:14;;;;;;;;;;;;;;;;;;5071106;28;20427;-82
2020/12/31 00:30:40;;;;;;;;;;;;;;;;;;5071411;28;20410;-82
2020/12/31 00:33:07;;;;;;;;;;;;;;;;;;5075645;28;20388;-83
2020/12/31 00:35:33;;;;;;;;;;;;;;;;;;5068073;28;20389;-81
2020/12/31 00:37:59;;;;;;;;;;;;;;;;;;5070554;28;20385;-82
2020/12/31 00:40:26;;;;;;;;;;;;;;;;;;5072127;28;20899;-81
2020/12/31 00:42:52;;;;;;;;;;;;;;;;;;5068556;28;20411;-81
2020/12/31 00:45:19;;;;;;;;;;;;;;;;;;5069576;28;20388;-81
2020/12/31 00:47:45;;;;;;;;;;;;;;;;;;5069146;28;20385;-81
2020/12/31 00:50:11;;;;;;;;;;;;;;;;;;5069087;28;20448;-80
2020/12/31 00:52:38;;;;;;;;;;;;;;;;;;5068827;28;20401;-83
2020/12/31 00:55:04;;;;;;;;;;;;;;;;;;5064992;28;20844;-83
2020/12/31 00:57:31;;;;;;;;;;;;;;;;;;5066312;28;20394;-83
2020/12/31 00:59:57;;;;;;;;;;;;;;;;;;5057620;28;20409;-83
2020/12/31 01:02:23;;;;;;;;;;;;;;;;;;5057718;28;20381;-83
2020/12/31 01:04:50;;;;;;;;;;;;;;;;;;5054892;28;20730;-83
2020/12/31 01:07:16;;;;;;;;;;;;;;;;;;5061914;28;20431;-83
2020/12/31 01:09:43;;;;;;;;;;;;;;;;;;5068509;28;20687;-83
2020/12/31 01:12:09;;;;;;;;;;;;;;;;;;5062224;28;20864;-83
2020/12/31 01:14:35;;;;;;;;;;;;;;;;;;5063099;28;20468;-83
2020/12/31 01:17:02;;;;;;;;;;;;;;;;;;5069175;28;20378;-83
2020/12/31 01:19:29;;;;;;;;;;;;;;;;;;5062237;28;20410;-82
2020/12/31 01:21:55;;;;;;;;;;;;;;;;;;5080377;28;20412;-83
2020/12/31 01:24:21;;;;;;;;;;;;;;;;;;5072187;28;20388;-83
2020/12/31 01:26:48;;;;;;;;;;;;;;;;;;5063693;28;20381;-83
2020/12/31 01:29:14;;;;;;;;;;;;;;;;;;5092254;22;21083;-86
2020/12/31 01:31:40;;;;;;;;;;;;;;;;;;5058990;28;20389;-88
2020/12/31 01:34:07;;;;;;;;;;;;;;;;;;5041566;28;20391;-88
2020/12/31 01:36:33;;;;;;;;;;;;;;;;;;5043855;28;20836;-87
2020/12/31 01:39:00;;;;;;;;;;;;;;;;;;5053423;28;20387;-89
2020/12/31 01:41:26;;;;;;;;;;;;;;;;;;5043713;28;20407;-88
2020/12/31 01:43:52;;;;;;;;;;;;;;;;;;5054202;28;20384;-89
2020/12/31 01:46:19;;;;;;;;;;;;;;;;;;5040596;28;20387;-88
2020/12/31 01:48:45;;;;;;;;;;;;;;;;;;5039728;28;20384;-88
2020/12/31 01:51:12;;;;;;;;;;;;;;;;;;5050421;28;20407;-88
2020/12/31 01:53:38;;;;;;;;;;;;;;;;;;5045758;28;20392;-88
2020/12/31 01:56:04;;;;;;;;;;;;;;;;;;5039375;28;20383;-88
2020/12/31 01:58:31;;;;;;;;;;;;;;;;;;5046042;28;20391;-87
2020/12/31 02:00:57;;;;;;;;;;;;;;;;;;5053388;28;20393;-88
2020/12/31 02:03:24;;;;;;;;;;;;;;;;;;5058372;28;20426;-88
2020/12/31 02:05:50;;;;;;;;;;;;;;;;;;5040431;28;20399;-88
2020/12/31 02:08:17;;;;;;;;;;;;;;;;;;5040995;28;20441;-87
2020/12/31 02:10:43;;;;;;;;;;;;;;;;;;5049677;28;20420;-88
2020/12/31 02:13:09;;;;;;;;;;;;;;;;;;5043765;28;20376;-88
2020/12/31 02:15:36;;;;;;;;;;;;;;;;;;5042826;28;20383;-87
2020/12/31 02:18:02;;;;;;;;;;;;;;;;;;5047321;28;20411;-87
2020/12/31 02:20:28;;;;;;;;;;;;;;;;;;5045487;28;20403;-87
2020/12/31 02:22:55;;;;;;;;;;;;;;;;;;5040093;28;20392;-87
2020/12/31 02:25:21;;;;;;;;;;;;;;;;;;5046522;28;20840;-86
2020/12/31 02:27:48;;;;;;;;;;;;;;;;;;5046317;28;20395;-87
2020/12/31 02:30:14;;;;;;;;;;;;;;;;;;5038542;28;20559;-87
2020/12/31 02:32:40;;;;;;;;;;;;;;;;;;5039174;28;20388;-86
2020/12/31 02:35:07;;;;;;;;;;;;;;;;;;5038689;28;20392;-86
2020/12/31 02:37:33;;;;;;;;;;;;;;;;;;5040119;28;20399;-86
2020/12/31 02:40:00;;;;;;;;;;;;;;;;;;5043008;28;20427;-87
2020/12/31 02:42:26;;;;;;;;;;;;;;;;;;5059350;28;20403;-86
2020/12/31 02:44:52;;;;;;;;;;;;;;;;;;5062459;28;20393;-87
2020/12/31 02:47:19;;;;;;;;;;;;;;;;;;5061900;28;20396;-88
2020/12/31 02:49:45;;;;;;;;;;;;;;;;;;5056769;28;20423;-86
2020/12/31 02:52:11;;;;;;;;;;;;;;;;;;5053228;28;20383;-87
2020/12/31 02:54:38;;;;;;;;;;;;;;;;;;5038686;28;20391;-86
2020/12/31 02:57:04;;;;;;;;;;;;;;;;;;5038703;28;20407;-87
2020/12/31 02:59:31;;;;;;;;;;;;;;;;;;5038631;28;20408;-86
2020/12/31 03:01:57;;;;;;;;;;;;;;;;;;5038993;28;20767;-86
2020/12/31 03:04:23;;;;;;;;;;;;;;;;;;5037553;28;20391;-85
2020/12/31 03:06:50;;;;;;;;;;;;;;;;;;5037763;28;20395;-90
2020/12/31 03:09:16;;;;;;;;;;;;;;;;;;5053692;28;20408;-86
2020/12/31 03:11:42;;;;;;;;;;;;;;;;;;5056556;28;20377;-85
2020/12/31 03:14:09;;;;;;;;;;;;;;;;;;5060151;28;20385;-86
2020/12/31 03:16:35;;;;;;;;;;;;;;;;;;5061323;28;20811;-86
2020/12/31 03:19:02;;;;;;;;;;;;;;;;;;5049764;28;20387;-87
2020/12/31 03:21:28;;;;;;;;;;;;;;;;;;5046417;28;20380;-87
2020/12/31 03:23:54;;;;;;;;;;;;;;;;;;5052388;28;20385;-87
2020/12/31 03:26:21;;;;;;;;;;;;;;;;;;5047248;28;20403;-87
2020/12/31 03:28:47;;;;;;;;;;;;;;;;;;5057230;28;20384;-87
2020/12/31 03:31:14;;;;;;;;;;;;;;;;;;5040645;28;20407;-86
2020/12/31 03:33:40;;;;;;;;;;;;;;;;;;5053434;28;20381;-88
2020/12/31 03:36:06;;;;;;;;;;;;;;;;;;5040259;28;20383;-88
2020/12/31 03:38:33;;;;;;;;;;;;;;;;;;5046119;28;20384;-87
2020/12/31 03:40:59;;;;;;;;;;;;;;;;;;5051213;28;20419;-87
2020/12/31 03:43:26;;;;;;;;;;;;;;;;;;5057238;28;20396;-86
2020/12/31 03:45:52;;;;;;;;;;;;;;;;;;5059214;28;20449;-89
2020/12/31 03:48:18;;;;;;;;;;;;;;;;;;5067355;28;20396;-88
2020/12/31 03:50:45;;;;;;;;;;;;;;;;;;5065527;28;20435;-87
2020/12/31 03:53:11;;;;;;;;;;;;;;;;;;5055686;28;20375;-87
2020/12/31 03:55:37;;;;;;;;;;;;;;;;;;5042493;28;20395;-88
2020/12/31 03:58:04;;;;;;;;;;;;;;;;;;5047439;28;20867;-88
2020/12/31 04:00:30;;;;;;;;;;;;;;;;;;5036166;28;20453;-89
2020/12/31 04:02:57;;;;;;;;;;;;;;;;;;5054651;28;20381;-88
2020/12/31 04:05:23;;;;;;;;;;;;;;;;;;5050776;28;20387;-88
2020/12/31 04:07:49;;;;;;;;;;;;;;;;;;5050364;28;20380;-86
2020/12/31 04:10:16;;;;;;;;;;;;;;;;;;5037716;28;20415;-88
2020/12/31 04:12:42;;;;;;;;;;;;;;;;;;5037903;28;20433;-88
2020/12/31 04:15:09;;;;;;;;;;;;;;;;;;5038456;28;20374;-87
2020/12/31 04:17:35;;;;;;;;;;;;;;;;;;5056957;28;20392;-88
2020/12/31 04:20:01;;;;;;;;;;;;;;;;;;5057355;28;20409;-88
2020/12/31 04:22:28;;;;;;;;;;;;;;;;;;5057881;28;20439;-88
2020/12/31 04:24:54;;;;;;;;;;;;;;;;;;5055070;28;20442;-88
2020/12/31 04:27:21;;;;;;;;;;;;;;;;;;5054919;28;20389;-88
2020/12/31 04:29:47;;;;;;;;;;;;;;;;;;5031604;28;20789;-88
2020/12/31 04:32:13;;;;;;;;;;;;;;;;;;5017187;28;20401;-88
2020/12/31 04:34:40;;;;;;;;;;;;;;;;;;5017994;28;20802;-87
2020/12/31 04:37:06;;;;;;;;;;;;;;;;;;5037538;28;20433;-87
2020/12/31 04:39:33;;;;;;;;;;;;;;;;;;5036066;28;20830;-88
2020/12/31 04:41:59;;;;;;;;;;;;;;;;;;5036384;28;20433;-87
2020/12/31 04:44:25;;;;;;;;;;;;;;;;;;5050500;28;20754;-88
2020/12/31 04:46:52;;;;;;;;;;;;;;;;;;5055027;28;20389;-88
2020/12/31 04:49:18;;;;;;;;;;;;;;;;;;5047898;28;20391;-86
2020/12/31 04:51:44;;;;;;;;;;;;;;;;;;5053036;28;20363;-86
2020/12/31 04:54:11;;;;;;;;;;;;;;;;;;5035183;28;20386;-86
2020/12/31 04:56:37;;;;;;;;;;;;;;;;;;5037502;28;20387;-87
2020/12/31 04:59:04;;;;;;;;;;;;;;;;;;5039500;28;20403;-86
2020/12/31 05:01:30;;;;;;;;;;;;;;;;;;5037119;28;20461;-87
2020/12/31 05:03:56;;;;;;;;;;;;;;;;;;5035101;28;20391;-86
2020/12/31 05:06:23;;;;;;;;;;;;;;;;;;5053769;28;20385;-87
2020/12/31 05:08:50;;;;;;;;;;;;;;;;;;5046570;28;20414;-87
2020/12/31 05:11:16;;;;;;;;;;;;;;;;;;5036840;28;20414;-86
2020/12/31 05:13:43;;;;;;;;;;;;;;;;;;5059340;28;20865;-86
2020/12/31 05:16:09;;;;;;;;;;;;;;;;;;5055197;28;20389;-86
2020/12/31 05:18:36;;;;;;;;;;;;;;;;;;5039901;28;20808;-88
2020/12/31 05:21:02;;;;;;;;;;;;;;;;;;5039610;28;20438;-87
2020/12/31 05:23:28;;;;;;;;;;;;;;;;;;5039701;28;20391;-86
2020/12/31 05:25:55;;;;;;;;;;;;;;;;;;5040054;28;20427;-87
2020/12/31 05:28:21;;;;;;;;;;;;;;;;;;5042331;28;20384;-86
2020/12/31 05:30:48;;;;;;;;;;;;;;;;;;5059652;28;20412;-88
2020/12/31 05:33:14;;;;;;;;;;;;;;;;;;5052161;28;20381;-88
2020/12/31 05:35:40;;;;;;;;;;;;;;;;;;5061397;28;20392;-87
2020/12/31 05:38:07;;;;;;;;;;;;;;;;;;5054083;28;20391;-88
2020/12/31 05:40:33;;;;;;;;;;;;;;;;;;5041124;28;20763;-88
2020/12/31 05:43:00;;;;;;;;;;;;;;;;;;5052647;28;20398;-86
2020/12/31 05:45:28;;;;;;;;;;;;;;;;;;5043293;28;20759;-88
2020/12/31 05:47:54;;;;;;;;;;;;;;;;;;5040782;28;20733;-87
2020/12/31 05:50:20;;;;;;;;;;;;;;;;;;5040899;28;20914;-88
2020/12/31 05:52:47;;;;;;;;;;;;;;;;;;5061266;28;20396;-88
2020/12/31 05:55:14;;;;;;;;;;;;;;;;;;5062427;28;20396;-87
2020/12/31 05:57:40;;;;;;;;;;;;;;;;;;5065486;28;20404;-87
2020/12/31 06:00:07;;;;;;;;;;;;;;;;;;5073816;28;20428;-87
2020/12/31 06:02:33;;;;;;;;;;;;;;;;;;5075882;28;20393;-87
2020/12/31 06:04:59;;;;;;;;;;;;;;;;;;5080687;28;20486;-87
2020/12/31 06:07:27;;;;;;;;;;;;;;;;;;5078155;28;20429;-88
2020/12/31 06:09:53;;;;;;;;;;;;;;;;;;5078427;28;20420;-88
2020/12/31 06:12:20;;;;;;;;;;;;;;;;;;5070157;28;20388;-88
2020/12/31 06:14:46;;;;;;;;;;;;;;;;;;5060572;28;20399;-87
2020/12/31 06:17:13;;;;;;;;;;;;;;;;;;5060714;28;20388;-88
2020/12/31 06:19:39;;;;;;;;;;;;;;;;;;5060863;28;20776;-88
2020/12/31 06:22:05;;;;;;;;;;;;;;;;;;5061964;28;20389;-87
2020/12/31 06:24:32;;;;;;;;;;;;;;;;;;5064126;28;20389;-87
2020/12/31 06:26:58;;;;;;;;;;;;;;;;;;5069381;28;20419;-86
2020/12/31 06:29:25;;;;;;;;;;;;;;;;;;5071481;28;20429;-87
2020/12/31 06:31:51;;;;;;;;;;;;;;;;;;5079520;28;20388;-88
2020/12/31 06:34:17;;;;;;;;;;;;;;;;;;5072029;28;20371;-87
2020/12/31 06:36:44;;;;;;;;;;;;;;;;;;5060617;28;20392;-88
2020/12/31 06:39:10;;;;;;;;;;;;;;;;;;5059670;28;20447;-88
2020/12/31 06:41:48;;;;;;;;;;;;;;;;;;5059962;28;20379;-87
2020/12/31 06:44:15;;;;;;;;;;;;;;;;;;5055248;28;20399;-87
2020/12/31 06:46:41;;;;;;;;;;;;;;;;;;5049429;28;20463;-87
2020/12/31 06:49:08;;;;;;;;;;;;;;;;;;5040872;28;20408;-88
2020/12/31 06:51:34;;;;;;;;;;;;;;;;;;5041171;28;20437;-87
2020/12/31 06:54:01;;;;;;;;;;;;;;;;;;5042260;28;20399;-87
2020/12/31 06:56:27;;;;;;;;;;;;;;;;;;5059345;28;20394;-86
2020/12/31 06:58:53;;;;;;;;;;;;;;;;;;5059359;28;20394;-85
2020/12/31 07:01:20;;;;;;;;;;;;;;;;;;5059381;28;20375;-85
2020/12/31 07:03:47;;;;;;;;;;;;;;;;;;5052863;28;20396;-85
2020/12/31 07:06:13;;;;;;;;;;;;;;;;;;5045610;28;20398;-86
2020/12/31 07:08:39;;;;;;;;;;;;;;;;;;5038215;28;20395;-86
2020/12/31 07:11:06;;;;;;;;;;;;;;;;;;5038219;28;20466;-86
2020/12/31 07:13:32;;;;;;;;;;;;;;;;;;5038538;28;20386;-87
2020/12/31 07:15:59;;;;;;;;;;;;;;;;;;5040288;28;20449;-86
2020/12/31 07:18:27;;;;;;;;;;;;;;;;;;5039042;28;20965;-86
2020/12/31 07:20:54;;;;;;;;;;;;;;;;;;5037284;28;20454;-86
2020/12/31 07:23:20;;;;;;;;;;;;;;;;;;5040751;28;20388;-87
2020/12/31 07:25:46;;;;;;;;;;;;;;;;;;5057580;28;20391;-87
2020/12/31 07:28:13;;;;;;;;;;;;;;;;;;5058003;28;20381;-88
2020/12/31 07:30:39;;;;;;;;;;;;;;;;;;5021434;23;1259026;-85
2020/12/31 07:33:06;;;;;;;;;;;;;;;;;;5033877;28;20395;-86
2020/12/31 07:35:32;;;;;;;;;;;;;;;;;;5024453;28;20891;-85
2020/12/31 07:37:58;;;;;;;;;;;;;;;;;;5029167;28;20390;-85
2020/12/31 07:40:25;;;;;;;;;;;;;;;;;;5031292;28;20760;-84
2020/12/31 07:42:51;;;;;;;;;;;;;;;;;;5026546;28;20420;-85
2020/12/31 07:45:18;;;;;;;;;;;;;;;;;;5029179;28;20806;-84
2020/12/31 07:47:46;;;;;;;;;;;;;;;;;;5013645;28;20398;-85
2020/12/31 07:50:12;;;;;;;;;;;;;;;;;;5035540;28;20411;-85
2020/12/31 07:52:39;;;;;;;;;;;;;;;;;;5034672;28;20388;-85
2020/12/31 07:55:05;;;;;;;;;;;;;;;;;;5028837;28;20391;-84
2020/12/31 07:57:32;;;;;;;;;;;;;;;;;;5033869;28;20414;-84
2020/12/31 07:59:58;;;;;;;;;;;;;;;;;;5033907;28;20411;-85
2020/12/31 08:02:24;;;;;;;;;;;;;;;;;;5034395;28;20402;-84
2020/12/31 08:07:24;;;;;;;;;;;;;;;;;;5040454;28;20387;-84
2020/12/31 08:09:51;;;;;;;;;;;;;;;;;;5040347;28;20415;-86
2020/12/31 08:12:17;;;;;;;;;;;;;;;;;;5036769;28;20406;-85
2020/12/31 08:14:44;;;;;;;;;;;;;;;;;;5041459;28;20397;-85
2020/12/31 08:17:10;;;;;;;;;;;;;;;;;;5039148;28;20383;-86
2020/12/31 08:19:38;;;;;;;;;;;;;;;;;;5032682;28;20402;-87
2020/12/31 08:22:11;;;;;;;;;;;;;;;;;;5034211;28;20403;-92
2020/12/31 08:24:37;;;;;;;;;;;;;;;;;;5028985;28;20393;-84
2020/12/31 08:27:04;;;;;;;;;;;;;;;;;;5026878;28;20395;-84
2020/12/31 08:29:31;;;;;;;;;;;;;;;;;;5039597;28;20410;-85
2020/12/31 08:31:57;;;;;;;;;;;;;;;;;;5025425;28;20901;-86
2020/12/31 08:34:23;;;;;;;;;;;;;;;;;;5027457;28;20389;-86
2020/12/31 08:36:50;;;;;;;;;;;;;;;;;;5033627;28;20399;-86
2020/12/31 08:39:16;;;;;;;;;;;;;;;;;;5037486;28;20395;-85
2020/12/31 08:41:43;;;;;;;;;;;;;;;;;;5035476;28;20383;-86
2020/12/31 08:44:09;;;;;;;;;;;;;;;;;;5034496;28;20422;-86
2020/12/31 08:46:35;;;;;;;;;;;;;;;;;;5036448;28;20388;-86
2020/12/31 08:49:02;;;;;;;;;;;;;;;;;;5030481;28;20384;-85
2020/12/31 08:51:28;;;;;;;;;;;;;;;;;;5033991;28;20775;-81
2020/12/31 08:53:55;;;;;;;;;;;;;;;;;;5033994;28;20393;-82
2020/12/31 08:56:21;;;;;;;;;;;;;;;;;;5028688;28;20394;-80
2020/12/31 08:58:47;;;;;;;;;;;;;;;;;;5030987;28;20387;-81
2020/12/31 09:01:14;;;;;;;;;;;;;;;;;;5036448;28;20399;-81
2020/12/31 09:03:40;;;;;;;;;;;;;;;;;;5034080;28;20391;-86
2020/12/31 09:06:07;;;;;;;;;;;;;;;;;;5040933;28;20398;-86
2020/12/31 09:08:33;;;;;;;;;;;;;;;;;;5047872;28;20410;-85
2020/12/31 09:11:00;;;;;;;;;;;;;;;;;;5040722;28;20437;-85
2020/12/31 09:13:26;;;;;;;;;;;;;;;;;;5038721;28;20395;-85
2020/12/31 09:15:59;;;;;;;;;;;;;;;;;;5038737;28;20410;-86
2020/12/31 09:18:27;;;;;;;;;;;;;;;;;;5039802;28;20391;-89
2020/12/31 09:20:54;;;;;;;;;;;;;;;;;;5035826;28;20415;-85
2020/12/31 09:23:20;;;;;;;;;;;;;;;;;;5032018;28;20390;-85
2020/12/31 09:25:47;;;;;;;;;;;;;;;;;;5032057;28;20379;-86
2020/12/31 09:28:13;;;;;;;;;;;;;;;;;;5038074;28;20399;-85
2020/12/31 09:30:40;;;;;;;;;;;;;;;;;;5036743;28;20465;-85
2020/12/31 09:33:06;;;;;;;;;;;;;;;;;;5033483;28;20396;-86
2020/12/31 09:35:33;;;;;;;;;;;;;;;;;;5039070;28;20387;-86
2020/12/31 09:37:59;;;;;;;;;;;;;;;;;;5034460;28;20391;-85
2020/12/31 09:40:26;;;;;;;;;;;;;;;;;;5039276;28;20430;-85
2020/12/31 09:42:52;;;;;;;;;;;;;;;;;;5038911;28;20401;-85
2020/12/31 09:45:18;;;;;;;;;;;;;;;;;;5038224;28;20407;-87
2020/12/31 09:47:45;;;;;;;;;;;;;;;;;;5032353;28;20413;-86
2020/12/31 09:50:11;;;;;;;;;;;;;;;;;;5034442;28;20408;-86
2020/12/31 09:52:38;;;;;;;;;;;;;;;;;;5037518;28;20386;-86
2020/12/31 09:55:04;;;;;;;;;;;;;;;;;;5041814;28;20406;-87
2020/12/31 09:57:30;;;;;;;;;;;;;;;;;;5059823;28;20373;-87
2020/12/31 09:59:57;;;;;;;;;;;;;;;;;;5043756;28;20415;-88
2020/12/31 10:02:29;;;;;;;;;;;;;;;;;;5041085;28;20414;-87
2020/12/31 10:04:59;;;;;;;;;;;;;;;;;;5040247;28;20854;-88
2020/12/31 10:07:25;;;;;;;;;;;;;;;;;;5041177;28;20383;-88
2020/12/31 10:09:51;;;;;;;;;;;;;;;;;;5040658;28;20407;-87
2020/12/31 10:12:18;;;;;;;;;;;;;;;;;;5042912;28;20380;-85
2020/12/31 10:14:46;;;;;;;;;;;;;;;;;;5043096;28;20433;-86
2020/12/31 10:17:14;;;;;;;;;;;;;;;;;;5047602;28;20379;-85
2020/12/31 10:19:40;;;;;;;;;;;;;;;;;;5045381;28;20407;-86
2020/12/31 10:22:07;;;;;;;;;;;;;;;;;;5043182;28;20387;-84
2020/12/31 10:24:33;;;;;;;;;;;;;;;;;;5036181;28;20395;-83
2020/12/31 10:27:06;;;;;;;;;;;;;;;;;;5036541;28;20383;-84
2020/12/31 10:29:35;;;;;;;;;;;;;;;;;;5026984;28;20419;-83
2020/12/31 10:32:02;;;;;;;;;;;;;;;;;;5045235;28;20392;-83
2020/12/31 10:34:28;;;;;;;;;;;;;;;;;;5037059;28;20395;-84
2020/12/31 10:36:54;;;;;;;;;;;;;;;;;;5053183;28;20433;-84
2020/12/31 10:39:21;;;;;;;;;;;;;;;;;;5042767;28;20386;-85
2020/12/31 10:41:49;;;;;;;;;;;;;;;;;;5038023;28;20391;-84
2020/12/31 10:44:15;;;;;;;;;;;;;;;;;;5038419;28;20406;-85
2020/12/31 10:46:42;;;;;;;;;;;;;;;;;;5040547;28;20387;-84
2020/12/31 10:49:08;;;;;;;;;;;;;;;;;;5050468;28;20414;-84
2020/12/31 10:51:34;;;;;;;;;;;;;;;;;;5038632;28;20407;-85
2020/12/31 10:54:01;;;;;;;;;;;;;;;;;;5037597;28;20387;-85
2020/12/31 10:56:27;;;;;;;;;;;;;;;;;;5038736;28;20411;-85
2020/12/31 10:58:54;;;;;;;;;;;;;;;;;;5037731;28;20395;-85
2020/12/31 11:01:20;;;;;;;;;;;;;;;;;;5033402;28;20494;-85
2020/12/31 11:03:47;;;;;;;;;;;;;;;;;;5035824;28;20387;-84
2020/12/31 11:06:13;;;;;;;;;;;;;;;;;;5048107;28;20372;-84
2020/12/31 11:08:39;;;;;;;;;;;;;;;;;;5035257;28;20410;-85
2020/12/31 11:11:06;;;;;;;;;;;;;;;;;;5037433;28;20406;-85
2020/12/31 11:13:32;;;;;;;;;;;;;;;;;;5030784;28;20390;-86
2020/12/31 11:15:58;;;;;;;;;;;;;;;;;;5029746;28;20383;-85
2020/12/31 11:18:25;;;;;;;;;;;;;;;;;;5024377;28;20398;-85
2020/12/31 11:20:51;;;;;;;;;;;;;;;;;;5037768;28;20410;-84
2020/12/31 11:23:18;;;;;;;;;;;;;;;;;;5037183;28;20415;-84
2020/12/31 11:25:58;;;;;;;;;;;;;;;;;;5020546;28;20417;-84
2020/12/31 11:28:25;;;;;;;;;;;;;;;;;;5038675;28;20409;-86
2020/12/31 11:30:51;;;;;;;;;;;;;;;;;;5036646;28;20434;-85
2020/12/31 11:33:18;;;;;;;;;;;;;;;;;;5036459;28;20436;-86
2020/12/31 11:35:44;;;;;;;;;;;;;;;;;;5036896;28;20802;-85
2020/12/31 11:38:10;;;;;;;;;;;;;;;;;;5037153;28;20751;-85
2020/12/31 11:40:37;;;;;;;;;;;;;;;;;;5033602;28;20415;-87
2020/12/31 11:45:44;;;;;;;;;;;;;;;;;;5013466;28;20474;-86
2020/12/31 11:48:11;;;;;;;;;;;;;;;;;;5054757;28;20376;-84
2020/12/31 11:50:37;;;;;;;;;;;;;;;;;;5045235;28;20497;-86
2020/12/31 11:53:04;;;;;;;;;;;;;;;;;;5035661;28;20375;-85
2020/12/31 11:55:30;;;;;;;;;;;;;;;;;;5035301;28;20747;-85
2020/12/31 11:57:56;;;;;;;;;;;;;;;;;;5027767;28;20394;-85
2020/12/31 12:00:23;;;;;;;;;;;;;;;;;;5032072;28;20544;-85
2020/12/31 12:02:49;;;;;;;;;;;;;;;;;;5034013;28;20449;-85
2020/12/31 12:05:16;;;;;;;;;;;;;;;;;;5029582;28;20393;-84
2020/12/31 12:07:42;;;;;;;;;;;;;;;;;;5027547;28;20383;-86
2020/12/31 12:10:09;;;;;;;;;;;;;;;;;;5030450;28;20440;-88
2020/12/31 12:12:35;;;;;;;;;;;;;;;;;;5036216;28;20797;-84
2020/12/31 12:15:01;;;;;;;;;;;;;;;;;;5028443;28;20393;-85
2020/12/31 12:17:28;;;;;;;;;;;;;;;;;;5023798;28;20736;-83
2020/12/31 12:19:54;;;;;;;;;;;;;;;;;;5032264;28;20456;-83
2020/12/31 12:22:21;;;;;;;;;;;;;;;;;;5036041;28;20875;-83
2020/12/31 12:24:47;;;;;;;;;;;;;;;;;;5038431;28;20895;-82
2020/12/31 12:27:13;;;;;;;;;;;;;;;;;;5038110;28;20395;-83
2020/12/31 12:29:40;;;;;;;;;;;;;;;;;;5028819;28;20452;-83
2020/12/31 12:32:06;;;;;;;;;;;;;;;;;;5037376;28;20391;-84
2020/12/31 12:34:32;;;;;;;;;;;;;;;;;;5037576;28;20396;-84
2020/12/31 12:36:59;;;;;;;;;;;;;;;;;;5036526;28;20386;-84
2020/12/31 12:39:25;;;;;;;;;;;;;;;;;;5037376;28;21040;-86
2020/12/31 12:41:52;;;;;;;;;;;;;;;;;;5034217;28;20395;-87
2020/12/31 12:44:18;;;;;;;;;;;;;;;;;;5028887;28;20390;-87
2020/12/31 12:46:44;;;;;;;;;;;;;;;;;;5036774;28;20397;-87
2020/12/31 12:49:14;;;;;;;;;;;;;;;;;;5035286;28;20392;-87
2020/12/31 12:51:41;;;;;;;;;;;;;;;;;;5020288;28;20426;-87
2020/12/31 12:54:08;;;;;;;;;;;;;;;;;;5043054;28;20387;-88
2020/12/31 12:56:35;;;;;;;;;;;;;;;;;;5047950;28;20423;-88
2020/12/31 12:59:01;;;;;;;;;;;;;;;;;;5039813;28;20399;-87
2020/12/31 13:01:27;;;;;;;;;;;;;;;;;;5035576;28;20787;-87
2020/12/31 13:03:54;;;;;;;;;;;;;;;;;;5023637;28;20390;-87
2020/12/31 13:06:20;;;;;;;;;;;;;;;;;;5019886;28;20915;-87
2020/12/31 13:08:49;;;;;;;;;;;;;;;;;;5033320;28;20416;-88
2020/12/31 13:11:15;;;;;;;;;;;;;;;;;;5037075;28;20450;-88
2020/12/31 13:13:41;;;;;;;;;;;;;;;;;;5038179;28;20391;-88
2020/12/31 13:16:08;;;;;;;;;;;;;;;;;;5036095;28;20394;-88
2020/12/31 13:18:34;;;;;;;;;;;;;;;;;;5034142;28;20475;-88
2020/12/31 13:21:01;;;;;;;;;;;;;;;;;;5037799;28;20407;-87
2020/12/31 13:23:28;;;;;;;;;;;;;;;;;;5024063;28;20376;-84
2020/12/31 13:25:54;;;;;;;;;;;;;;;;;;5036409;28;20391;-86
2020/12/31 13:28:20;;;;;;;;;;;;;;;;;;5037627;28;20396;-86
2020/12/31 13:30:47;;;;;;;;;;;;;;;;;;5036910;28;20465;-86
2020/12/31 13:49:43;;;;;;;;;;;;;;;;;;5041926;28;20749;-88
2020/12/31 13:52:09;;;;;;;;;;;;;;;;;;5042735;28;20407;-87
2020/12/31 13:54:36;;;;;;;;;;;;;;;;;;5043088;28;20388;-84
2020/12/31 13:59:46;;;;;;;;;;;;;;;;;;5053925;28;20379;-84
2020/12/31 14:02:13;;;;;;;;;;;;;;;;;;5046360;28;20419;-84
2020/12/31 14:04:39;;;;;;;;;;;;;;;;;;5041793;28;20388;-86
2020/12/31 14:07:06;;;;;;;;;;;;;;;;;;5040469;28;20910;-85
2020/12/31 14:09:32;;;;;;;;;;;;;;;;;;5043401;28;20383;-86
2020/12/31 14:11:59;;;;;;;;;;;;;;;;;;5039550;28;20491;-85
2020/12/31 14:14:25;;;;;;;;;;;;;;;;;;5041011;28;20826;-86
2020/12/31 14:16:51;;;;;;;;;;;;;;;;;;5055256;28;20388;-85
2020/12/31 14:19:18;;;;;;;;;;;;;;;;;;5038132;28;20387;-87
2020/12/31 14:21:44;;;;;;;;;;;;;;;;;;5039161;28;20410;-87
2020/12/31 14:24:11;;;;;;;;;;;;;;;;;;5050297;28;20392;-86
2020/12/31 14:26:38;;;;;;;;;;;;;;;;;;5057530;28;20388;-86
2020/12/31 14:34:34;;;;;;;;;;;;;;;;;;5036234;28;20414;-87
2020/12/31 15:21:02;;;;;;;;;;;;;;;;;;4902202;29;20825;-84
2020/12/31 15:26:09;;;;;;;;;;;;;;;;;;4866519;29;20485;-85
2020/12/31 15:28:39;;;;;;;;;;;;;;;;;;4863043;29;20418;-87
2020/12/31 15:31:05;;;;;;;;;;;;;;;;;;4869633;29;20424;-88
2020/12/31 15:33:32;;;;;;;;;;;;;;;;;;4877909;29;20442;-86
2020/12/31 15:35:58;;;;;;;;;;;;;;;;;;4878088;29;20419;-86
2020/12/31 15:38:24;;;;;;;;;;;;;;;;;;4870652;29;20499;-88
2020/12/31 15:40:51;;;;;;;;;;;;;;;;;;4862346;29;20412;-87
2020/12/31 15:43:17;;;;;;;;;;;;;;;;;;4863370;29;20435;-88
2020/12/31 15:45:44;;;;;;;;;;;;;;;;;;4871132;29;20419;-87
2020/12/31 15:48:10;;;;;;;;;;;;;;;;;;4876903;29;20431;-87
2020/12/31 15:50:37;;;;;;;;;;;;;;;;;;4862159;29;20932;-88
2020/12/31 15:53:03;;;;;;;;;;;;;;;;;;4862626;29;20442;-88
2020/12/31 15:55:30;;;;;;;;;;;;;;;;;;4863463;29;20499;-87
2020/12/31 15:57:56;;;;;;;;;;;;;;;;;;4900735;29;20912;-87
2020/12/31 16:00:23;;;;;;;;;;;;;;;;;;4921596;29;20711;-86
2020/12/31 16:02:49;;;;;;;;;;;;;;;;;;4937833;28;20412;-88
2020/12/31 16:05:16;;;;;;;;;;;;;;;;;;4978617;28;20392;-88
2020/12/31 16:07:42;;;;;;;;;;;;;;;;;;4977654;28;20709;-88
2020/12/31 16:10:08;;;;;;;;;;;;;;;;;;4977212;28;20402;-89
2020/12/31 16:12:35;;;;;;;;;;;;;;;;;;4980013;28;20412;-88
2020/12/31 16:15:01;;;;;;;;;;;;;;;;;;5005481;28;20376;-84
2020/12/31 16:17:28;;;;;;;;;;;;;;;;;;4997781;28;20383;-86
2020/12/31 16:19:55;;;;;;;;;;;;;;;;;;4988383;28;20398;-85
2020/12/31 16:22:21;;;;;;;;;;;;;;;;;;4973015;28;20420;-87
2020/12/31 16:24:48;;;;;;;;;;;;;;;;;;4975128;28;20410;-85
2020/12/31 16:27:14;;;;;;;;;;;;;;;;;;4976573;28;20411;-88
2020/12/31 16:29:40;;;;;;;;;;;;;;;;;;4975794;28;20414;-88
2020/12/31 16:32:07;;;;;;;;;;;;;;;;;;4976013;28;20412;-89
2020/12/31 16:34:33;;;;;;;;;;;;;;;;;;4975709;28;20407;-87
2020/12/31 16:37:00;;;;;;;;;;;;;;;;;;4979469;28;20463;-87
2020/12/31 16:39:26;;;;;;;;;;;;;;;;;;4975091;28;20392;-88
2020/12/31 16:41:52;;;;;;;;;;;;;;;;;;4972596;28;20426;-89
2020/12/31 16:44:19;;;;;;;;;;;;;;;;;;4976583;28;20832;-88
2020/12/31 16:46:45;;;;;;;;;;;;;;;;;;4974413;28;20392;-88
2020/12/31 16:49:12;;;;;;;;;;;;;;;;;;4977891;28;20911;-88
2020/12/31 16:51:38;;;;;;;;;;;;;;;;;;4970751;28;20897;-88
2020/12/31 16:54:05;;;;;;;;;;;;;;;;;;4989155;28;20392;-90
2020/12/31 16:56:31;;;;;;;;;;;;;;;;;;4994520;28;20440;-87
2020/12/31 16:58:57;;;;;;;;;;;;;;;;;;4993898;28;20443;-88
2020/12/31 17:01:24;;;;;;;;;;;;;;;;;;4997297;28;20401;-89
2020/12/31 17:03:50;;;;;;;;;;;;;;;;;;4998421;28;20396;-88
2020/12/31 17:06:17;;;;;;;;;;;;;;;;;;4998233;28;20393;-88
2020/12/31 17:08:43;;;;;;;;;;;;;;;;;;5011383;28;20440;-83
2020/12/31 17:11:09;;;;;;;;;;;;;;;;;;5002165;28;20419;-86
2020/12/31 17:13:36;;;;;;;;;;;;;;;;;;5003943;28;20413;-87
2020/12/31 17:16:02;;;;;;;;;;;;;;;;;;5008453;28;20408;-87
2020/12/31 17:18:28;;;;;;;;;;;;;;;;;;4999231;28;20381;-87
2020/12/31 17:20:55;;;;;;;;;;;;;;;;;;5001224;28;20396;-87
2020/12/31 17:23:22;;;;;;;;;;;;;;;;;;5000287;28;20474;-89
2020/12/31 17:25:48;;;;;;;;;;;;;;;;;;5014720;28;20380;-86
2020/12/31 17:28:15;;;;;;;;;;;;;;;;;;5003329;28;20385;-86
2020/12/31 17:30:41;;;;;;;;;;;;;;;;;;5000215;28;20413;-87
2020/12/31 17:33:07;;;;;;;;;;;;;;;;;;5001670;28;20416;-86
2020/12/31 17:38:31;;;;;;;;;;;;;;;;;;4976534;28;20431;-87
2020/12/31 17:40:57;;;;;;;;;;;;;;;;;;4984295;28;20391;-86
2020/12/31 17:46:09;;;;;;;;;;;;;;;;;;4972588;28;20405;-88
2020/12/31 17:48:35;;;;;;;;;;;;;;;;;;4979732;28;20387;-86
2020/12/31 17:51:01;;;;;;;;;;;;;;;;;;4981204;28;20416;-88
2020/12/31 17:53:28;;;;;;;;;;;;;;;;;;4977868;28;20408;-87
2020/12/31 17:55:54;;;;;;;;;;;;;;;;;;4977619;28;20450;-86
2020/12/31 17:58:21;;;;;;;;;;;;;;;;;;4973343;28;20854;-88
2020/12/31 18:00:47;;;;;;;;;;;;;;;;;;4970602;28;20386;-88
2020/12/31 18:03:14;;;;;;;;;;;;;;;;;;4991331;28;20496;-88